Time;durP1;ratioP1;P1;durP2;ratioP2;P2;SDS_P1;SDS_P2;PMS_P1;PMS_P2;Temp;Humidity;BMP_temperature;BMP_pressure;BME280_temperature;BME280_humidity;BME280_pressure;Samples;Min_cycle;Max_cycle;Signal;HPM_P1;HPM_P2
2022/03/09 00:01:55;;;;;;;22.40;9.70;;;;;;;-1.98;94.65;100669.63;104136;1272;1003218;-76
2022/03/09 00:04:44;;;;;;;24.30;9.40;;;;;;;-2.00;94.86;100670.01;105078;1274;60297;-75
2022/03/09 00:07:34;;;;;;;28.70;11.60;;;;;;;-2.03;95.21;100664.13;105166;1274;74625;-75
2022/03/09 00:10:21;;;;;;;32.00;13.40;;;;;;;-2.03;95.18;100664.50;104853;1274;68063;-75
2022/03/09 00:13:09;;;;;;;30.10;12.10;;;;;;;-2.03;95.31;100666.59;105021;1274;72794;-74
2022/03/09 00:15:56;;;;;;;32.50;13.30;;;;;;;-2.03;95.69;100667.98;104959;1275;59711;-76
2022/03/09 00:18:47;;;;;;;31.60;13.00;;;;;;;-2.03;95.78;100665.20;105067;1274;59646;-76
2022/03/09 00:21:34;;;;;;;27.80;10.20;;;;;;;-2.02;95.73;100657.69;105333;1274;73106;-76
2022/03/09 00:24:22;;;;;;;28.90;11.10;;;;;;;-2.02;96.01;100654.03;104862;1275;68064;-76
2022/03/09 00:27:10;;;;;;;31.60;13.00;;;;;;;-2.03;96.24;100649.70;104875;1275;73023;-76
2022/03/09 00:29:58;;;;;;;29.90;12.90;;;;;;;-2.02;95.78;100649.87;105068;1272;59733;-76
2022/03/09 00:32:45;;;;;;;29.10;11.40;;;;;;;-2.03;96.02;100649.72;105069;1272;59545;-77
2022/03/09 00:35:33;;;;;;;27.40;12.00;;;;;;;-2.03;96.04;100648.34;104731;1274;74311;-76
2022/03/09 00:38:20;;;;;;;28.40;12.20;;;;;;;-2.03;96.14;100648.66;105058;1274;68133;-76
2022/03/09 00:41:09;;;;;;;29.40;11.70;;;;;;;-2.02;96.12;100652.14;105015;1274;71777;-77
2022/03/09 00:43:56;;;;;;;28.70;10.40;;;;;;;-2.02;96.25;100653.35;104771;1274;59784;-76
2022/03/09 00:46:43;;;;;;;26.70;11.20;;;;;;;-2.03;96.90;100663.28;104652;1277;60806;-76
2022/03/09 00:49:31;;;;;;;26.50;11.00;;;;;;;-2.10;96.74;100656.95;104930;1274;73307;-77
2022/03/09 00:52:23;;;;;;;27.50;11.40;;;;;;;-2.09;97.54;100665.63;105403;1274;68509;-76
2022/03/09 00:55:11;;;;;;;27.70;10.50;;;;;;;-2.08;96.96;100668.75;104867;1274;72931;-78
2022/03/09 00:57:59;;;;;;;24.50;8.90;;;;;;;-2.12;97.37;100671.23;105034;1274;59774;-78
2022/03/09 01:00:49;;;;;;;24.70;9.60;;;;;;;-2.14;97.82;100672.66;105167;1274;59796;-78
2022/03/09 01:03:39;;;;;;;29.30;11.70;;;;;;;-2.17;98.10;100675.31;105098;1274;73761;-76
2022/03/09 01:06:26;;;;;;;31.50;12.40;;;;;;;-2.20;98.07;100671.55;105110;1277;66559;-77
2022/03/09 01:09:14;;;;;;;31.50;12.70;;;;;;;-2.24;98.52;100668.31;104974;1276;73064;-78
2022/03/09 01:12:03;;;;;;;29.90;11.30;;;;;;;-2.22;98.70;100675.92;104647;1278;59747;-76
2022/03/09 01:14:51;;;;;;;34.70;13.10;;;;;;;-2.21;98.65;100674.52;104608;1278;60533;-78
2022/03/09 01:17:39;;;;;;;31.40;12.70;;;;;;;-2.23;98.79;100670.36;104788;1277;74977;-77
2022/03/09 01:20:26;;;;;;;26.90;10.20;;;;;;;-2.20;98.87;100675.36;104568;1277;68321;-76
2022/03/09 01:23:14;;;;;;;30.90;11.70;;;;;;;-2.18;99.11;100681.59;104653;1277;71404;-75
2022/03/09 01:26:01;;;;;;;25.20;10.30;;;;;;;-2.18;99.71;100683.33;105065;1277;59729;-76
2022/03/09 01:28:49;;;;;;;25.30;9.70;;;;;;;-2.17;99.39;100683.67;105345;1277;59655;-75
2022/03/09 01:31:37;;;;;;;23.00;8.70;;;;;;;-2.19;99.61;100677.96;105024;1277;74834;-75
2022/03/09 01:34:24;;;;;;;27.90;11.10;;;;;;;-2.21;99.86;100678.34;105061;1277;67989;-75
2022/03/09 01:37:13;;;;;;;23.90;9.40;;;;;;;-2.24;99.77;100677.52;104980;1277;70219;-74
2022/03/09 01:40:03;;;;;;;20.70;7.50;;;;;;;-2.28;99.66;100671.84;105602;1274;59673;-77
2022/03/09 01:42:50;;;;;;;28.70;11.20;;;;;;;-2.31;99.68;100672.73;105512;1274;59785;-76
2022/03/09 01:45:38;;;;;;;26.80;10.50;;;;;;;-2.33;100.00;100671.39;105387;1272;73384;-76
2022/03/09 01:48:26;;;;;;;28.90;11.30;;;;;;;-2.35;99.99;100675.23;105814;1274;68302;-76
2022/03/09 01:51:15;;;;;;;27.90;10.70;;;;;;;-2.35;100.00;100676.12;104615;1274;1003099;-76
2022/03/09 01:54:05;;;;;;;25.40;10.60;;;;;;;-2.36;100.00;100669.68;106976;1273;59711;-76
2022/03/09 01:56:54;;;;;;;28.10;11.80;;;;;;;-2.35;100.00;100669.66;107855;1273;59534;-76
2022/03/09 01:59:41;;;;;;;28.30;11.30;;;;;;;-2.35;100.00;100665.33;107368;1274;73815;-78
2022/03/09 02:02:29;;;;;;;26.70;11.00;;;;;;;-2.33;100.00;100660.63;107261;1273;67127;-77
2022/03/09 02:05:19;;;;;;;28.30;11.40;;;;;;;-2.31;100.00;100661.10;106307;1274;1003502;-75
2022/03/09 02:11:13;;;;;;;29.50;12.00;;;;;;;-2.28;100.00;100660.88;107943;1271;59632;-77
2022/03/09 02:14:01;;;;;;;26.90;10.20;;;;;;;-2.24;100.00;100665.87;106813;1273;1002883;-75
2022/03/09 02:16:55;;;;;;;28.00;10.70;;;;;;;-2.22;100.00;100668.44;107378;1273;67195;-75
2022/03/09 02:19:46;;;;;;;32.10;11.70;;;;;;;-2.21;100.00;100663.56;107745;1272;71746;-76
2022/03/09 02:22:37;;;;;;;28.20;11.10;;;;;;;-2.18;100.00;100672.55;108235;1273;59195;-78
2022/03/09 02:25:24;;;;;;;26.90;11.10;;;;;;;-2.17;100.00;100672.87;107698;1273;59719;-77
2022/03/09 02:28:13;;;;;;;30.30;12.00;;;;;;;-2.16;100.00;100674.09;106220;1273;72241;-76
2022/03/09 02:31:02;;;;;;;31.50;12.00;;;;;;;-2.17;100.00;100672.88;105251;1274;1003786;-77
2022/03/09 02:33:50;;;;;;;51.40;16.90;;;;;;;-2.21;100.00;100668.43;105879;1273;73086;-78
2022/03/09 02:36:37;;;;;;;44.10;17.00;;;;;;;-2.21;99.97;100675.73;105381;1273;1002461;-78
2022/03/09 02:39:27;;;;;;;41.70;18.60;;;;;;;-2.23;100.00;100676.28;106256;1272;60025;-77
2022/03/09 02:42:15;;;;;;;60.00;27.70;;;;;;;-2.26;100.00;100682.93;106478;1274;73170;-76
2022/03/09 02:45:04;;;;;;;66.90;29.00;;;;;;;-2.28;99.98;100685.22;106691;1274;68059;-77
2022/03/09 02:47:51;;;;;;;69.30;31.00;;;;;;;-2.29;99.85;100688.89;106741;1273;72530;-76
2022/03/09 02:50:39;;;;;;;50.80;21.50;;;;;;;-2.30;99.96;100693.77;107960;1273;59219;-75
2022/03/09 02:53:27;;;;;;;44.40;18.90;;;;;;;-2.31;100.00;100694.30;107397;1274;60675;-76
2022/03/09 02:56:16;;;;;;;40.00;17.60;;;;;;;-2.30;99.97;100698.46;106829;1274;73535;-76
2022/03/09 02:59:04;;;;;;;31.90;12.50;;;;;;;-2.29;100.00;100694.10;105745;1271;69034;-76
2022/03/09 03:01:52;;;;;;;30.00;12.90;;;;;;;-2.27;99.98;100693.20;105231;1273;71424;-78
2022/03/09 03:04:42;;;;;;;31.80;12.00;;;;;;;-2.27;100.00;100689.38;105190;1274;59889;-77
2022/03/09 03:07:30;;;;;;;29.90;12.50;;;;;;;-2.26;100.00;100689.70;105217;1274;60885;-77
2022/03/09 03:10:18;;;;;;;33.00;13.50;;;;;;;-2.26;100.00;100688.14;105406;1272;72490;-77
2022/03/09 03:13:06;;;;;;;29.50;11.80;;;;;;;-2.23;100.00;100693.84;105044;1273;67880;-75
2022/03/09 03:15:54;;;;;;;45.40;17.50;;;;;;;-2.22;100.00;100697.30;105128;1274;72861;-76
2022/03/09 03:18:44;;;;;;;52.90;22.60;;;;;;;-2.20;100.00;100701.27;104964;1272;59793;-76
2022/03/09 03:21:32;;;;;;;55.60;25.70;;;;;;;-2.19;100.00;100702.64;104971;1273;59653;-76
2022/03/09 03:24:22;;;;;;;50.80;23.00;;;;;;;-2.18;100.00;100708.21;105185;1274;70948;-75
2022/03/09 03:27:09;;;;;;;43.00;19.10;;;;;;;-2.18;100.00;100711.84;105144;1274;68342;-76
2022/03/09 03:29:57;;;;;;;37.20;16.40;;;;;;;-2.18;100.00;100717.42;105149;1274;73554;-77
2022/03/09 03:32:45;;;;;;;37.80;15.90;;;;;;;-2.23;100.00;100718.70;104950;1274;59873;-77
2022/03/09 03:35:33;;;;;;;34.00;13.90;;;;;;;-2.26;100.00;100719.44;104990;1274;61455;-78
2022/03/09 03:38:20;;;;;;;29.60;12.30;;;;;;;-2.30;100.00;100721.23;105089;1274;72021;-78
2022/03/09 03:41:11;;;;;;;32.90;14.30;;;;;;;-2.34;100.00;100724.42;104300;1274;1002618;-77
2022/03/09 03:44:00;;;;;;;38.30;14.30;;;;;;;-2.36;100.00;100727.39;104920;1274;73204;-78
2022/03/09 03:46:48;;;;;;;36.10;13.70;;;;;;;-2.38;100.00;100728.12;104919;1274;59851;-76
2022/03/09 03:49:38;;;;;;;31.90;11.60;;;;;;;-2.40;100.00;100730.77;104744;1274;59849;-77
2022/03/09 03:52:26;;;;;;;31.30;11.60;;;;;;;-2.37;100.00;100734.71;104925;1272;71139;-76
2022/03/09 03:55:14;;;;;;;30.40;12.50;;;;;;;-2.37;100.00;100739.58;104778;1274;68118;-77
2022/03/09 03:58:01;;;;;;;36.70;13.70;;;;;;;-2.36;100.00;100743.92;105053;1274;72961;-77
2022/03/09 04:00:51;;;;;;;33.50;13.90;;;;;;;-2.36;100.00;100741.83;104848;1274;59797;-77
2022/03/09 04:03:40;;;;;;;36.60;14.20;;;;;;;-2.34;100.00;100743.89;105079;1273;59740;-76
2022/03/09 04:06:29;;;;;;;34.70;13.30;;;;;;;-2.31;100.00;100744.36;105055;1274;73229;-76
2022/03/09 04:09:17;;;;;;;32.40;11.90;;;;;;;-2.29;100.00;100746.25;104924;1274;66939;-77
2022/03/09 04:12:04;;;;;;;33.00;12.30;;;;;;;-2.26;100.00;100750.04;104904;1274;72741;-76
2022/03/09 04:14:54;;;;;;;33.40;12.70;;;;;;;-2.25;100.00;100747.23;104938;1273;59767;-77
2022/03/09 04:17:46;;;;;;;28.50;10.90;;;;;;;-2.23;100.00;100752.59;104865;1274;59535;-75
2022/03/09 04:20:35;;;;;;;28.80;10.30;;;;;;;-2.23;100.00;100743.04;105300;1274;73404;-76
2022/03/09 04:23:26;;;;;;;26.00;10.90;;;;;;;-2.23;100.00;100741.98;104671;1274;66691;-75
2022/03/09 04:26:13;;;;;;;27.30;11.10;;;;;;;-2.24;100.00;100745.64;105150;1274;71779;-75
2022/03/09 04:29:00;;;;;;;24.90;10.10;;;;;;;-2.25;100.00;100744.27;105027;1274;59649;-76
2022/03/09 04:31:48;;;;;;;26.10;10.30;;;;;;;-2.28;100.00;100743.80;104871;1273;60323;-76
2022/03/09 04:34:36;;;;;;;35.80;13.40;;;;;;;-2.31;100.00;100739.85;105111;1274;73356;-75
2022/03/09 04:37:24;;;;;;;29.50;10.60;;;;;;;-2.34;100.00;100737.11;105048;1274;67951;-76
2022/03/09 04:40:12;;;;;;;29.10;11.80;;;;;;;-2.39;100.00;100738.73;104649;1274;73049;-75
2022/03/09 04:43:00;;;;;;;32.40;11.90;;;;;;;-2.39;100.00;100746.39;104845;1274;59755;-75
2022/03/09 04:45:47;;;;;;;28.90;10.90;;;;;;;-2.43;100.00;100743.48;104742;1274;59650;-75
2022/03/09 04:48:36;;;;;;;28.80;11.00;;;;;;;-2.43;100.00;100746.27;105761;1271;72061;-77
2022/03/09 04:51:26;;;;;;;26.70;10.40;;;;;;;-2.46;100.00;100747.17;105022;1273;68811;-76
2022/03/09 04:54:13;;;;;;;27.60;10.00;;;;;;;-2.49;100.00;100748.95;104822;1274;73035;-77
2022/03/09 04:57:04;;;;;;;27.40;11.00;;;;;;;-2.49;100.00;100747.04;105445;1274;59730;-77
2022/03/09 04:59:55;;;;;;;24.40;9.30;;;;;;;-2.51;100.00;100745.33;105212;1273;60378;-77
2022/03/09 05:02:44;;;;;;;21.10;8.80;;;;;;;-2.53;100.00;100743.61;105168;1273;73306;-76
2022/03/09 05:05:34;;;;;;;17.40;7.00;;;;;;;-2.54;100.00;100742.06;104846;1271;66924;-75
2022/03/09 05:08:23;;;;;;;22.90;9.20;;;;;;;-2.56;100.00;100742.45;105353;1271;72909;-76
2022/03/09 05:11:10;;;;;;;24.50;9.50;;;;;;;-2.59;100.00;100741.95;104710;1274;59939;-77
2022/03/09 05:13:58;;;;;;;20.20;8.20;;;;;;;-2.63;100.00;100744.26;104756;1274;60597;-77
2022/03/09 05:16:45;;;;;;;19.10;7.60;;;;;;;-2.65;100.00;100748.29;104876;1275;72060;-76
2022/03/09 05:19:34;;;;;;;24.00;9.90;;;;;;;-2.68;100.00;100752.66;104821;1274;68312;-76
2022/03/09 05:22:22;;;;;;;26.70;10.30;;;;;;;-2.73;100.00;100747.86;105327;1276;73105;-76
2022/03/09 05:25:12;;;;;;;27.10;11.00;;;;;;;-2.72;100.00;100753.06;104964;1276;59884;-76
2022/03/09 05:28:01;;;;;;;31.30;12.10;;;;;;;-2.73;100.00;100749.42;104575;1276;60423;-75
2022/03/09 05:30:48;;;;;;;27.30;10.90;;;;;;;-2.71;100.00;100753.22;105185;1277;71911;-76
2022/03/09 05:33:36;;;;;;;31.20;12.80;;;;;;;-2.70;100.00;100752.86;104726;1276;68829;-76
2022/03/09 05:36:25;;;;;;;28.90;11.30;;;;;;;-2.67;100.00;100753.70;104669;1276;72967;-76
2022/03/09 05:39:17;;;;;;;24.30;8.80;;;;;;;-2.65;100.00;100747.93;104570;1276;59593;-76
2022/03/09 05:42:05;;;;;;;24.60;9.80;;;;;;;-2.64;100.00;100752.44;105192;1273;59646;-78
2022/03/09 05:44:52;;;;;;;25.90;10.70;;;;;;;-2.61;100.00;100755.01;104735;1274;73380;-78
2022/03/09 05:47:59;;;;;;;23.90;10.10;;;;;;;-2.55;100.00;100756.14;105332;1273;68204;-77
2022/03/09 05:50:47;;;;;;;21.60;9.20;;;;;;;-2.52;100.00;100756.98;105163;1274;71432;-78
2022/03/09 05:53:36;;;;;;;24.10;9.50;;;;;;;-2.48;100.00;100754.33;104853;1274;59779;-78
2022/03/09 05:56:24;;;;;;;22.20;9.20;;;;;;;-2.42;100.00;100761.73;105740;1271;59602;-76
2022/03/09 05:59:11;;;;;;;24.00;9.00;;;;;;;-2.38;100.00;100766.89;105167;1273;1016290;-77
2022/03/09 06:01:58;;;;;;;22.50;8.70;;;;;;;-2.36;100.00;100767.21;105234;1271;68103;-78
2022/03/09 06:04:46;;;;;;;22.30;9.10;;;;;;;-2.34;100.00;100764.91;105208;1273;72946;-78
2022/03/09 06:07:34;;;;;;;25.90;9.90;;;;;;;-2.32;100.00;100769.08;105017;1271;59799;-75
2022/03/09 06:10:22;;;;;;;24.60;9.60;;;;;;;-2.29;100.00;100771.64;105019;1273;60593;-78
2022/03/09 06:13:10;;;;;;;20.30;8.00;;;;;;;-2.26;100.00;100770.03;104889;1271;73250;-77
2022/03/09 06:15:58;;;;;;;23.10;9.40;;;;;;;-2.20;100.00;100775.52;105059;1271;68527;-77
2022/03/09 06:18:46;;;;;;;25.20;9.50;;;;;;;-2.15;100.00;100782.58;104966;1271;73107;-78
2022/03/09 06:21:33;;;;;;;23.90;9.00;;;;;;;-2.08;100.00;100782.48;105157;1273;59681;-77
2022/03/09 06:24:21;;;;;;;22.00;8.60;;;;;;;-2.01;100.00;100785.34;105201;1271;59483;-77
2022/03/09 06:27:08;;;;;;;21.40;8.20;;;;;;;-1.93;100.00;100782.26;105090;1271;72397;-77
2022/03/09 06:29:57;;;;;;;19.60;8.30;;;;;;;-1.88;100.00;100779.58;105196;1271;67101;-77
2022/03/09 06:32:46;;;;;;;18.40;8.10;;;;;;;-1.78;100.00;100784.30;105220;1271;72958;-76
2022/03/09 06:35:34;;;;;;;20.40;7.60;;;;;;;-1.74;100.00;100787.00;104995;1271;59818;-78
2022/03/09 06:38:22;;;;;;;21.70;8.50;;;;;;;-1.64;100.00;100793.48;105011;1271;60327;-77
2022/03/09 06:41:09;;;;;;;20.50;8.70;;;;;;;-1.58;100.00;100794.09;104901;1271;73492;-78
2022/03/09 06:43:56;;;;;;;22.80;9.30;;;;;;;-1.48;99.94;100795.84;105258;1271;67842;-76
2022/03/09 06:46:44;;;;;;;24.30;9.80;;;;;;;-1.41;99.90;100794.50;105455;1271;74605;-76
2022/03/09 06:49:31;;;;;;;28.30;10.40;;;;;;;-1.30;99.91;100792.06;104397;1271;1002665;-76
2022/03/09 06:52:20;;;;;;;27.30;10.40;;;;;;;-1.19;99.75;100794.66;104962;1271;59635;-75
2022/03/09 06:55:12;;;;;;;23.30;9.20;;;;;;;-1.08;99.72;100797.59;105042;1271;73743;-75
2022/03/09 06:57:59;;;;;;;23.70;10.00;;;;;;;-0.95;99.31;100799.80;104528;1271;1002853;-76
2022/03/09 07:00:47;;;;;;;22.00;9.40;;;;;;;-0.78;99.41;100802.63;105171;1272;74669;-75
2022/03/09 07:03:35;;;;;;;19.40;8.50;;;;;;;-0.59;98.88;100802.42;104775;1274;59619;-78
2022/03/09 07:06:22;;;;;;;17.40;7.70;;;;;;;-0.35;98.89;100806.65;105305;1274;59781;-78
2022/03/09 07:09:11;;;;;;;20.30;8.30;;;;;;;0.02;98.19;100799.41;105217;1274;73482;-75
2022/03/09 07:11:58;;;;;;;16.60;8.10;;;;;;;1.70;98.74;100799.41;104868;1272;68133;-73
2022/03/09 07:14:45;;;;;;;19.30;8.60;;;;;;;4.04;95.71;100798.02;105070;1274;72324;-77
2022/03/09 07:17:33;;;;;;;18.30;8.70;;;;;;;6.22;87.62;100791.67;105463;1274;59721;-78
2022/03/09 07:20:20;;;;;;;19.50;8.30;;;;;;;8.04;79.01;100786.71;108463;1273;58828;-77
2022/03/09 07:23:08;;;;;;;15.80;8.00;;;;;;;9.77;71.81;100783.52;105074;1273;73442;-78
2022/03/09 07:25:55;;;;;;;16.70;8.30;;;;;;;11.18;62.01;100774.44;105741;1274;66699;-78
2022/03/09 07:28:44;;;;;;;14.00;7.10;;;;;;;12.51;56.80;100774.42;105786;1274;73138;-76
2022/03/09 07:31:31;;;;;;;13.20;6.70;;;;;;;13.60;51.23;100764.70;104826;1274;59717;-78
2022/03/09 07:34:22;;;;;;;12.30;6.20;;;;;;;14.59;46.90;100765.82;105309;1271;59570;-80
2022/03/09 07:37:11;;;;;;;14.50;6.20;;;;;;;15.49;42.06;100768.18;105007;1273;71771;-79
2022/03/09 07:39:59;;;;;;;11.50;6.20;;;;;;;16.22;40.71;100766.59;104784;1274;66629;-78
2022/03/09 07:42:48;;;;;;;14.40;7.80;;;;;;;16.89;38.01;100770.01;105504;1271;73143;-79
2022/03/09 07:45:37;;;;;;;11.60;5.50;;;;;;;17.44;35.54;100762.33;105059;1271;59781;-78
2022/03/09 07:48:23;;;;;;;10.10;5.00;;;;;;;17.85;33.96;100757.32;105408;1274;60431;-78
2022/03/09 07:51:14;;;;;;;10.00;4.70;;;;;;;18.28;32.88;100758.76;104677;1274;73539;-80
2022/03/09 07:54:05;;;;;;;9.10;4.50;;;;;;;18.68;31.87;100759.77;105090;1274;67015;-78
2022/03/09 07:56:53;;;;;;;9.50;4.70;;;;;;;19.03;31.23;100762.88;104795;1274;73608;-78
2022/03/09 07:59:40;;;;;;;10.60;4.80;;;;;;;19.47;30.30;100761.81;104748;1274;59695;-78
2022/03/09 08:02:35;;;;;;;11.10;5.10;;;;;;;19.75;29.07;100757.06;105144;1276;59938;-77
2022/03/09 08:05:22;;;;;;;10.30;4.20;;;;;;;19.94;28.31;100756.32;104638;1276;73278;-79
2022/03/09 08:08:10;;;;;;;10.60;4.40;;;;;;;20.16;28.10;100758.58;104736;1276;68265;-78
2022/03/09 08:10:57;;;;;;;15.00;8.20;;;;;;;20.35;27.82;100760.64;104857;1276;72963;-77
2022/03/09 08:13:45;;;;;;;10.20;5.10;;;;;;;20.53;27.32;100751.87;105564;1276;59918;-78
2022/03/09 08:16:33;;;;;;;10.70;4.30;;;;;;;20.95;26.77;100754.63;105939;1276;61482;-76
2022/03/09 08:19:20;;;;;;;9.10;3.90;;;;;;;21.18;26.29;100746.68;105085;1277;73241;-78
2022/03/09 08:22:07;;;;;;;9.40;4.00;;;;;;;21.49;25.72;100745.90;106214;1274;338298;-77
2022/03/09 08:24:54;;;;;;;10.00;4.30;;;;;;;21.76;25.18;100743.20;105115;1273;72434;-77
2022/03/09 08:27:41;;;;;;;8.60;3.70;;;;;;;21.73;24.75;100745.60;105211;1273;59660;-77
2022/03/09 08:30:28;;;;;;;10.80;4.30;;;;;;;22.01;24.72;100744.58;105022;1273;59611;-76
2022/03/09 08:33:16;;;;;;;9.20;3.90;;;;;;;22.15;24.00;100746.05;104748;1273;73336;-77
2022/03/09 08:36:04;;;;;;;8.00;3.30;;;;;;;22.26;23.81;100747.41;104934;1272;68052;-77
2022/03/09 08:38:54;;;;;;;9.90;3.60;;;;;;;22.40;23.44;100743.48;104623;1274;73412;-76
2022/03/09 08:41:44;;;;;;;9.60;3.50;;;;;;;22.48;22.96;100744.70;104932;1273;59768;-77
2022/03/09 08:44:51;;;;;;;8.00;3.50;;;;;;;22.60;22.72;100742.89;104939;1273;59692;-76
2022/03/09 08:47:39;;;;;;;8.60;3.90;;;;;;;22.77;22.66;100741.36;104768;1273;73357;-78
2022/03/09 08:50:26;;;;;;;9.00;3.50;;;;;;;22.83;21.90;100740.21;105128;1274;67251;-78
2022/03/09 08:53:27;;;;;;;9.60;4.10;;;;;;;22.91;21.77;100740.21;105006;1271;71884;-78
2022/03/09 08:56:16;;;;;;;8.60;3.50;;;;;;;23.09;22.01;100739.64;104817;1273;59768;-78
2022/03/09 08:59:03;;;;;;;8.90;4.00;;;;;;;23.18;21.53;100744.01;105146;1273;59651;-78
2022/03/09 09:01:50;;;;;;;10.00;4.00;;;;;;;23.34;21.82;100745.02;104999;1272;73323;-78
2022/03/09 09:04:42;;;;;;;8.90;3.60;;;;;;;23.45;21.19;100751.05;105214;1273;66966;-77
2022/03/09 09:07:29;;;;;;;8.40;3.50;;;;;;;23.51;20.75;100753.13;104686;1273;71629;-78
2022/03/09 09:10:16;;;;;;;11.00;4.60;;;;;;;23.33;20.43;100753.79;105019;1273;59550;-78
2022/03/09 09:13:05;;;;;;;8.20;3.20;;;;;;;23.04;20.90;100758.74;104964;1273;59747;-77
2022/03/09 09:15:53;;;;;;;9.30;3.70;;;;;;;23.17;20.93;100763.88;104888;1273;73758;-78
2022/03/09 09:18:43;;;;;;;10.60;3.20;;;;;;;23.51;20.46;100763.23;105106;1274;68536;-79
2022/03/09 09:21:32;;;;;;;8.90;3.60;;;;;;;23.59;20.26;100763.55;104856;1274;72851;-78
2022/03/09 09:24:23;;;;;;;9.00;3.70;;;;;;;23.64;19.88;100767.60;105281;1273;59772;-78
2022/03/09 09:27:10;;;;;;;9.10;3.30;;;;;;;23.80;19.56;100766.39;105282;1273;60922;-77
2022/03/09 09:30:22;;;;;;;7.80;3.20;;;;;;;24.07;19.35;100762.02;104678;1274;72060;-78
2022/03/09 09:33:09;;;;;;;10.00;3.50;;;;;;;24.06;19.37;100762.85;105066;1274;67063;-78
2022/03/09 09:35:56;;;;;;;9.80;3.30;;;;;;;24.22;19.58;100764.66;105073;1272;72776;-78
2022/03/09 09:38:43;;;;;;;10.90;3.10;;;;;;;24.29;19.11;100766.15;105105;1272;59680;-78
2022/03/09 09:41:33;;;;;;;10.80;4.50;;;;;;;24.20;19.73;100768.56;104985;1273;59570;-77
2022/03/09 09:44:25;;;;;;;19.80;13.50;;;;;;;24.36;18.76;100773.25;105011;1273;73129;-78
2022/03/09 09:47:14;;;;;;;9.10;4.40;;;;;;;24.41;18.93;100776.98;105045;1274;66456;-77
2022/03/09 09:50:02;;;;;;;8.80;3.60;;;;;;;24.42;18.60;100774.45;105114;1273;71514;-77
2022/03/09 09:52:49;;;;;;;9.80;3.40;;;;;;;24.65;18.59;100776.61;105057;1273;59663;-79
2022/03/09 09:55:39;;;;;;;9.20;3.20;;;;;;;24.85;18.53;100777.82;105040;1273;59674;-78
2022/03/09 09:58:28;;;;;;;16.10;9.20;;;;;;;25.08;18.02;100779.01;105162;1274;73200;-78
2022/03/09 10:01:15;;;;;;;8.20;3.60;;;;;;;25.48;18.08;100779.76;104881;1274;66590;-79
2022/03/09 10:04:05;;;;;;;10.10;3.60;;;;;;;25.81;17.44;100777.08;105214;1274;72817;-78
2022/03/09 10:06:53;;;;;;;9.30;3.30;;;;;;;26.22;17.24;100778.27;104729;1274;59800;-78
2022/03/09 10:09:44;;;;;;;9.00;2.80;;;;;;;26.46;16.78;100780.81;104922;1274;60733;-79
2022/03/09 10:12:34;;;;;;;11.30;3.00;;;;;;;26.47;16.87;100782.86;105037;1273;73333;-78
2022/03/09 10:15:22;;;;;;;11.70;4.70;;;;;;;26.57;17.04;100787.63;104740;1274;67964;-78
2022/03/09 10:18:22;;;;;;;10.60;4.60;;;;;;;26.79;16.71;100794.15;105297;1274;72908;-79
2022/03/09 10:21:17;;;;;;;8.60;2.90;;;;;;;26.97;16.25;100795.20;104454;1277;59694;-79
2022/03/09 10:24:08;;;;;;;8.30;2.90;;;;;;;27.09;15.96;100792.77;104513;1276;60730;-78
2022/03/09 10:26:56;;;;;;;15.50;7.50;;;;;;;27.02;16.04;100797.17;104874;1276;72440;-78
2022/03/09 10:29:54;;;;;;;9.90;3.90;;;;;;;27.09;16.09;100805.87;104944;1276;68882;-78
2022/03/09 10:32:52;;;;;;;9.60;3.10;;;;;;;27.15;16.11;100807.42;104752;1276;73160;-77
2022/03/09 10:35:49;;;;;;;9.50;3.20;;;;;;;26.90;16.03;100809.91;104736;1276;59735;-79
2022/03/09 10:38:36;;;;;;;10.60;4.60;;;;;;;26.51;16.51;100807.27;104619;1276;60263;-78
2022/03/09 10:41:34;;;;;;;10.80;4.50;;;;;;;26.18;16.69;100811.56;104732;1276;73705;-78
2022/03/09 10:44:42;;;;;;;14.20;4.90;;;;;;;25.70;17.27;100813.17;105002;1276;68744;-78
2022/03/09 10:47:42;;;;;;;10.70;4.20;;;;;;;25.67;17.54;100814.71;104772;1276;71873;-78
2022/03/09 10:50:30;;;;;;;11.40;5.20;;;;;;;25.64;17.73;100813.34;105097;1278;59792;-78
2022/03/09 10:53:18;;;;;;;12.10;5.20;;;;;;;25.57;17.78;100809.66;104952;1274;60591;-78
2022/03/09 10:56:05;;;;;;;11.50;5.20;;;;;;;25.83;17.62;100805.86;104954;1274;72114;-78
2022/03/09 10:58:53;;;;;;;12.00;5.60;;;;;;;26.16;17.34;100807.45;105231;1273;67819;-79
2022/03/09 11:01:43;;;;;;;10.20;5.00;;;;;;;26.02;17.36;100807.44;104893;1274;72993;-78
2022/03/09 11:04:32;;;;;;;11.00;5.10;;;;;;;25.97;17.56;100811.61;105379;1273;59696;-78
2022/03/09 11:07:19;;;;;;;14.40;6.50;;;;;;;25.98;17.61;100807.61;105127;1273;60465;-78
2022/03/09 11:10:09;;;;;;;12.80;6.40;;;;;;;25.71;17.30;100811.49;105178;1272;71733;-78
2022/03/09 11:12:58;;;;;;;10.80;5.20;;;;;;;24.89;17.95;100815.48;105125;1273;67921;-77
2022/03/09 11:15:49;;;;;;;10.30;4.20;;;;;;;24.66;18.45;100813.64;105142;1273;71749;-78
2022/03/09 11:18:37;;;;;;;11.20;5.30;;;;;;;24.33;18.98;100812.29;105471;1273;60233;-78
2022/03/09 11:21:34;;;;;;;11.60;4.40;;;;;;;23.86;19.14;100816.52;105157;1273;60437;-78
2022/03/09 11:24:25;;;;;;;9.60;4.00;;;;;;;23.54;19.40;100817.15;105440;1273;73454;-78
2022/03/09 11:27:14;;;;;;;10.30;4.20;;;;;;;23.47;19.55;100821.58;104918;1273;68598;-78
2022/03/09 11:30:27;;;;;;;9.00;3.10;;;;;;;23.16;19.10;100824.40;104933;1273;72680;-78
2022/03/09 11:33:51;;;;;;;9.60;3.40;;;;;;;22.75;19.81;100829.20;104931;1273;59703;-78
2022/03/09 11:36:57;;;;;;;8.60;2.60;;;;;;;22.38;20.32;100835.73;105073;1271;59654;-78
2022/03/09 11:40:10;;;;;;;20.30;11.50;;;;;;;21.93;20.29;100834.92;105024;1272;73171;-78
2022/03/09 11:43:29;;;;;;;9.50;2.70;;;;;;;21.32;20.85;100845.09;105422;1273;68173;-76
2022/03/09 11:46:18;;;;;;;8.20;2.10;;;;;;;20.82;21.54;100841.17;105427;1273;73002;-77
2022/03/09 11:49:05;;;;;;;9.80;2.30;;;;;;;20.44;21.93;100841.13;105170;1271;59802;-76
2022/03/09 11:52:17;;;;;;;9.40;2.40;;;;;;;19.90;22.33;100839.09;105074;1273;60447;-76
2022/03/09 11:55:18;;;;;;;7.40;2.10;;;;;;;19.60;22.75;100838.19;105120;1271;73065;-77
2022/03/09 11:58:12;;;;;;;8.10;2.20;;;;;;;19.50;23.40;100835.28;105129;1273;67039;-75
2022/03/09 12:01:03;;;;;;;7.00;2.10;;;;;;;19.55;23.52;100835.12;105045;1273;73109;-77
2022/03/09 12:03:51;;;;;;;8.10;2.00;;;;;;;19.38;23.57;100839.55;105421;1273;59778;-77
2022/03/09 12:06:45;;;;;;;8.30;2.20;;;;;;;19.01;23.78;100838.14;105314;1273;59660;-77
2022/03/09 12:09:55;;;;;;;9.80;2.50;;;;;;;18.51;24.08;100849.73;104840;1273;73681;-76
2022/03/09 12:13:14;;;;;;;9.30;2.50;;;;;;;18.21;24.74;100851.92;104972;1273;66949;-77
2022/03/09 12:16:17;;;;;;;8.60;2.60;;;;;;;17.91;25.11;100859.78;105224;1273;74210;-77
2022/03/09 12:19:08;;;;;;;8.30;2.40;;;;;;;17.53;25.63;100865.55;105155;1273;59691;-76
2022/03/09 12:21:56;;;;;;;9.60;2.50;;;;;;;17.10;26.36;100866.35;105492;1273;60042;-77
2022/03/09 12:24:44;;;;;;;8.20;2.40;;;;;;;16.83;26.67;100865.54;105397;1273;73425;-77
2022/03/09 12:27:33;;;;;;;8.20;1.90;;;;;;;16.72;26.68;100868.83;104907;1273;69063;-78
2022/03/09 12:30:52;;;;;;;9.00;2.20;;;;;;;16.43;27.29;100866.25;104837;1273;73556;-77
2022/03/09 12:33:47;;;;;;;10.30;2.10;;;;;;;16.21;27.94;100865.58;104949;1281;59879;-78
2022/03/09 12:36:35;;;;;;;9.10;2.10;;;;;;;15.76;28.19;100871.81;104441;1281;60628;-76
2022/03/09 12:39:23;;;;;;;8.30;2.20;;;;;;;15.39;29.03;100867.43;104306;1281;73485;-77
2022/03/09 12:42:10;;;;;;;8.40;2.40;;;;;;;14.83;30.06;100878.31;104381;1281;68427;-77
2022/03/09 12:45:01;;;;;;;8.90;2.30;;;;;;;14.13;31.68;100884.12;104579;1282;71591;-77
2022/03/09 12:47:54;;;;;;;10.20;3.00;;;;;;;13.53;32.87;100887.20;104502;1281;59601;-76
2022/03/09 12:50:42;;;;;;;10.70;2.90;;;;;;;13.07;34.20;100895.96;103831;1281;1003614;-76